sensor_id;sensor_type;location;lat;lon;timestamp;temperature;humidity
6270;DHT22;3168;51.684;6.954;2022-12-16T00:02:06;-7.20;1.00
6270;DHT22;3168;51.684;6.954;2022-12-16T00:04:33;-7.30;1.00
6270;DHT22;3168;51.684;6.954;2022-12-16T00:06:59;-7.30;1.00
6270;DHT22;3168;51.684;6.954;2022-12-16T00:09:25;-7.30;1.00
6270;DHT22;3168;51.684;6.954;2022-12-16T00:11:51;-7.30;1.00
6270;DHT22;3168;51.684;6.954;2022-12-16T00:14:17;-7.30;1.00
6270;DHT22;3168;51.684;6.954;2022-12-16T00:16:43;-7.40;1.00
6270;DHT22;3168;51.684;6.954;2022-12-16T00:19:08;-7.30;1.00
6270;DHT22;3168;51.684;6.954;2022-12-16T00:21:34;-7.30;1.00
6270;DHT22;3168;51.684;6.954;2022-12-16T00:24:00;-7.30;1.00
6270;DHT22;3168;51.684;6.954;2022-12-16T00:26:26;-7.40;1.00
6270;DHT22;3168;51.684;6.954;2022-12-16T00:28:52;-7.30;1.00
6270;DHT22;3168;51.684;6.954;2022-12-16T00:31:18;-7.30;1.00
6270;DHT22;3168;51.684;6.954;2022-12-16T00:33:43;-7.30;1.00
6270;DHT22;3168;51.684;6.954;2022-12-16T00:36:09;-7.30;1.00
6270;DHT22;3168;51.684;6.954;2022-12-16T00:38:35;-7.30;1.00
6270;DHT22;3168;51.684;6.954;2022-12-16T00:41:01;-7.40;1.00
6270;DHT22;3168;51.684;6.954;2022-12-16T00:43:27;-7.30;1.00
6270;DHT22;3168;51.684;6.954;2022-12-16T00:45:53;-7.40;1.00
6270;DHT22;3168;51.684;6.954;2022-12-16T00:48:18;-7.40;1.00
6270;DHT22;3168;51.684;6.954;2022-12-16T00:50:48;-7.50;1.00
6270;DHT22;3168;51.684;6.954;2022-12-16T00:53:11;-7.50;1.00
6270;DHT22;3168;51.684;6.954;2022-12-16T00:55:37;-7.40;1.00
6270;DHT22;3168;51.684;6.954;2022-12-16T00:58:02;-7.40;1.00
6270;DHT22;3168;51.684;6.954;2022-12-16T01:00:28;-7.50;1.00
6270;DHT22;3168;51.684;6.954;2022-12-16T01:02:54;-7.50;1.00
6270;DHT22;3168;51.684;6.954;2022-12-16T01:05:21;-7.40;1.00
6270;DHT22;3168;51.684;6.954;2022-12-16T01:07:46;-7.50;1.00
6270;DHT22;3168;51.684;6.954;2022-12-16T01:10:12;-7.60;1.00
6270;DHT22;3168;51.684;6.954;2022-12-16T01:12:38;-7.60;1.00
6270;DHT22;3168;51.684;6.954;2022-12-16T01:15:04;-7.60;1.00
6270;DHT22;3168;51.684;6.954;2022-12-16T01:17:30;-7.40;1.00
6270;DHT22;3168;51.684;6.954;2022-12-16T01:19:56;-7.30;1.00
6270;DHT22;3168;51.684;6.954;2022-12-16T01:22:22;-7.10;1.00
6270;DHT22;3168;51.684;6.954;2022-12-16T01:24:47;-7.10;1.00
6270;DHT22;3168;51.684;6.954;2022-12-16T01:27:13;-7.20;1.00
6270;DHT22;3168;51.684;6.954;2022-12-16T01:29:39;-7.30;1.00
6270;DHT22;3168;51.684;6.954;2022-12-16T01:32:05;-7.40;1.00
6270;DHT22;3168;51.684;6.954;2022-12-16T01:34:31;-7.20;1.00
6270;DHT22;3168;51.684;6.954;2022-12-16T01:36:57;-7.10;1.00
6270;DHT22;3168;51.684;6.954;2022-12-16T01:39:22;-7.10;1.00
6270;DHT22;3168;51.684;6.954;2022-12-16T01:41:48;-7.10;1.00
6270;DHT22;3168;51.684;6.954;2022-12-16T01:44:17;-7.20;1.00
6270;DHT22;3168;51.684;6.954;2022-12-16T01:46:42;-7.10;1.00
6270;DHT22;3168;51.684;6.954;2022-12-16T01:49:09;-7.00;1.00
6270;DHT22;3168;51.684;6.954;2022-12-16T01:51:35;-7.00;1.00
6270;DHT22;3168;51.684;6.954;2022-12-16T01:54:04;-6.90;1.00
6270;DHT22;3168;51.684;6.954;2022-12-16T01:56:29;-6.90;1.00
6270;DHT22;3168;51.684;6.954;2022-12-16T01:58:54;-6.90;1.00
6270;DHT22;3168;51.684;6.954;2022-12-16T02:01:20;-6.80;1.00
6270;DHT22;3168;51.684;6.954;2022-12-16T02:03:45;-6.80;1.00
6270;DHT22;3168;51.684;6.954;2022-12-16T02:06:11;-6.80;1.00
6270;DHT22;3168;51.684;6.954;2022-12-16T02:08:37;-6.80;1.00
6270;DHT22;3168;51.684;6.954;2022-12-16T02:14:00;-6.80;1.00
6270;DHT22;3168;51.684;6.954;2022-12-16T02:19:07;-7.00;1.00
6270;DHT22;3168;51.684;6.954;2022-12-16T02:21:45;-7.10;1.00
6270;DHT22;3168;51.684;6.954;2022-12-16T02:24:23;-7.20;1.00
6270;DHT22;3168;51.684;6.954;2022-12-16T02:26:59;-7.10;1.00
6270;DHT22;3168;51.684;6.954;2022-12-16T02:37:41;-7.00;1.00
6270;DHT22;3168;51.684;6.954;2022-12-16T02:42:48;-7.20;1.00
6270;DHT22;3168;51.684;6.954;2022-12-16T02:45:14;-7.20;1.00
6270;DHT22;3168;51.684;6.954;2022-12-16T02:47:38;-7.10;1.00
6270;DHT22;3168;51.684;6.954;2022-12-16T02:50:05;-7.10;1.00
6270;DHT22;3168;51.684;6.954;2022-12-16T02:52:31;-7.10;1.00
6270;DHT22;3168;51.684;6.954;2022-12-16T02:54:57;-7.10;1.00
6270;DHT22;3168;51.684;6.954;2022-12-16T02:57:40;-7.00;1.00
6270;DHT22;3168;51.684;6.954;2022-12-16T03:00:05;-7.00;1.00
6270;DHT22;3168;51.684;6.954;2022-12-16T03:02:39;-7.00;1.00
6270;DHT22;3168;51.684;6.954;2022-12-16T03:05:19;-6.90;1.00
6270;DHT22;3168;51.684;6.954;2022-12-16T03:07:42;-6.90;1.00
6270;DHT22;3168;51.684;6.954;2022-12-16T03:10:09;-6.90;1.00
6270;DHT22;3168;51.684;6.954;2022-12-16T03:12:34;-6.80;1.00
6270;DHT22;3168;51.684;6.954;2022-12-16T03:15:00;-6.80;1.00
6270;DHT22;3168;51.684;6.954;2022-12-16T03:17:26;-6.80;1.00
6270;DHT22;3168;51.684;6.954;2022-12-16T03:19:53;-6.80;1.00
6270;DHT22;3168;51.684;6.954;2022-12-16T03:22:19;-6.70;1.00
6270;DHT22;3168;51.684;6.954;2022-12-16T03:24:44;-6.60;1.00
6270;DHT22;3168;51.684;6.954;2022-12-16T03:29:53;-6.40;1.00
6270;DHT22;3168;51.684;6.954;2022-12-16T03:32:22;-6.40;1.00
6270;DHT22;3168;51.684;6.954;2022-12-16T03:34:49;-6.50;1.00
6270;DHT22;3168;51.684;6.954;2022-12-16T03:37:13;-6.40;1.00
6270;DHT22;3168;51.684;6.954;2022-12-16T03:39:43;-6.60;1.00
6270;DHT22;3168;51.684;6.954;2022-12-16T03:42:08;-6.60;1.00
6270;DHT22;3168;51.684;6.954;2022-12-16T03:44:34;-6.50;1.00
6270;DHT22;3168;51.684;6.954;2022-12-16T03:47:00;-6.50;1.00
6270;DHT22;3168;51.684;6.954;2022-12-16T03:49:26;-6.40;1.00
6270;DHT22;3168;51.684;6.954;2022-12-16T03:51:52;-6.30;1.50
6270;DHT22;3168;51.684;6.954;2022-12-16T03:54:18;-6.30;4.20
6270;DHT22;3168;51.684;6.954;2022-12-16T03:56:43;-6.20;6.20
6270;DHT22;3168;51.684;6.954;2022-12-16T03:59:09;-6.30;6.80
6270;DHT22;3168;51.684;6.954;2022-12-16T04:01:35;-6.20;9.80
6270;DHT22;3168;51.684;6.954;2022-12-16T04:04:01;-6.20;9.10
6270;DHT22;3168;51.684;6.954;2022-12-16T04:06:27;-6.20;10.40
6270;DHT22;3168;51.684;6.954;2022-12-16T04:08:53;-6.20;11.30
6270;DHT22;3168;51.684;6.954;2022-12-16T04:11:18;-6.20;10.50
6270;DHT22;3168;51.684;6.954;2022-12-16T04:13:50;-6.20;11.40
6270;DHT22;3168;51.684;6.954;2022-12-16T04:16:22;-6.20;11.00
6270;DHT22;3168;51.684;6.954;2022-12-16T04:18:55;-6.20;11.80
6270;DHT22;3168;51.684;6.954;2022-12-16T04:21:27;-6.30;12.30
6270;DHT22;3168;51.684;6.954;2022-12-16T04:23:58;-6.30;11.50
6270;DHT22;3168;51.684;6.954;2022-12-16T04:26:31;-6.20;12.00
6270;DHT22;3168;51.684;6.954;2022-12-16T04:28:57;-6.30;11.80
6270;DHT22;3168;51.684;6.954;2022-12-16T04:31:23;-6.30;11.40
6270;DHT22;3168;51.684;6.954;2022-12-16T04:33:49;-6.30;13.10
6270;DHT22;3168;51.684;6.954;2022-12-16T04:36:21;-6.30;11.80
6270;DHT22;3168;51.684;6.954;2022-12-16T04:38:52;-6.40;11.30
6270;DHT22;3168;51.684;6.954;2022-12-16T04:41:24;-6.50;11.10
6270;DHT22;3168;51.684;6.954;2022-12-16T04:43:56;-6.50;11.10
6270;DHT22;3168;51.684;6.954;2022-12-16T04:46:29;-6.70;7.40
6270;DHT22;3168;51.684;6.954;2022-12-16T04:49:01;-6.70;7.50
6270;DHT22;3168;51.684;6.954;2022-12-16T04:51:32;-6.90;5.80
6270;DHT22;3168;51.684;6.954;2022-12-16T04:54:04;-6.90;4.50
6270;DHT22;3168;51.684;6.954;2022-12-16T04:56:36;-7.00;4.40
6270;DHT22;3168;51.684;6.954;2022-12-16T04:59:08;-7.10;5.50
6270;DHT22;3168;51.684;6.954;2022-12-16T05:01:41;-7.10;7.80
6270;DHT22;3168;51.684;6.954;2022-12-16T05:04:12;-7.10;7.90
6270;DHT22;3168;51.684;6.954;2022-12-16T05:06:44;-7.20;8.50
6270;DHT22;3168;51.684;6.954;2022-12-16T05:09:16;-7.20;9.80
6270;DHT22;3168;51.684;6.954;2022-12-16T05:11:48;-7.20;10.80
6270;DHT22;3168;51.684;6.954;2022-12-16T05:14:20;-7.20;10.80
6270;DHT22;3168;51.684;6.954;2022-12-16T05:16:53;-7.20;10.70
6270;DHT22;3168;51.684;6.954;2022-12-16T05:19:24;-7.10;9.70
6270;DHT22;3168;51.684;6.954;2022-12-16T05:21:55;-7.10;9.80
6270;DHT22;3168;51.684;6.954;2022-12-16T05:24:28;-7.00;9.70
6270;DHT22;3168;51.684;6.954;2022-12-16T05:27:00;-7.10;9.70
6270;DHT22;3168;51.684;6.954;2022-12-16T05:29:32;-7.00;8.80
6270;DHT22;3168;51.684;6.954;2022-12-16T05:32:03;-7.00;8.00
6270;DHT22;3168;51.684;6.954;2022-12-16T05:34:35;-7.10;6.80
6270;DHT22;3168;51.684;6.954;2022-12-16T05:37:07;-7.10;5.70
6270;DHT22;3168;51.684;6.954;2022-12-16T05:39:39;-7.20;4.20
6270;DHT22;3168;51.684;6.954;2022-12-16T05:42:11;-7.20;2.90
6270;DHT22;3168;51.684;6.954;2022-12-16T05:44:43;-7.20;2.80
6270;DHT22;3168;51.684;6.954;2022-12-16T05:47:15;-7.50;2.30
6270;DHT22;3168;51.684;6.954;2022-12-16T05:49:47;-7.20;1.60
6270;DHT22;3168;51.684;6.954;2022-12-16T05:52:19;-7.30;1.00
6270;DHT22;3168;51.684;6.954;2022-12-16T05:54:50;-7.30;1.00
6270;DHT22;3168;51.684;6.954;2022-12-16T05:57:22;-7.40;1.00
6270;DHT22;3168;51.684;6.954;2022-12-16T05:59:54;-7.40;1.00
6270;DHT22;3168;51.684;6.954;2022-12-16T06:02:26;-7.50;1.00
6270;DHT22;3168;51.684;6.954;2022-12-16T06:04:58;-7.40;1.00
6270;DHT22;3168;51.684;6.954;2022-12-16T06:07:30;-7.40;1.00
6270;DHT22;3168;51.684;6.954;2022-12-16T06:10:02;-7.40;1.00
6270;DHT22;3168;51.684;6.954;2022-12-16T06:12:34;-7.30;1.00
6270;DHT22;3168;51.684;6.954;2022-12-16T06:15:06;-7.30;1.00
6270;DHT22;3168;51.684;6.954;2022-12-16T06:17:42;-7.30;1.00
6270;DHT22;3168;51.684;6.954;2022-12-16T06:20:13;-7.30;1.00
6270;DHT22;3168;51.684;6.954;2022-12-16T06:22:51;-7.20;1.00
6270;DHT22;3168;51.684;6.954;2022-12-16T06:25:22;-7.20;1.00
6270;DHT22;3168;51.684;6.954;2022-12-16T06:27:54;-7.20;1.00
6270;DHT22;3168;51.684;6.954;2022-12-16T06:30:26;-7.10;1.00
6270;DHT22;3168;51.684;6.954;2022-12-16T06:32:58;-7.10;1.00
6270;DHT22;3168;51.684;6.954;2022-12-16T06:35:30;-7.00;1.00
6270;DHT22;3168;51.684;6.954;2022-12-16T06:38:02;-7.00;1.00
6270;DHT22;3168;51.684;6.954;2022-12-16T06:40:34;-6.90;1.00
6270;DHT22;3168;51.684;6.954;2022-12-16T06:43:06;-7.00;1.00
6270;DHT22;3168;51.684;6.954;2022-12-16T06:45:38;-7.00;1.00
6270;DHT22;3168;51.684;6.954;2022-12-16T06:48:09;-6.90;1.00
6270;DHT22;3168;51.684;6.954;2022-12-16T06:50:41;-6.90;1.00
6270;DHT22;3168;51.684;6.954;2022-12-16T06:53:20;-7.00;1.00
6270;DHT22;3168;51.684;6.954;2022-12-16T06:55:52;-7.00;1.00
6270;DHT22;3168;51.684;6.954;2022-12-16T06:58:24;-6.90;1.00
6270;DHT22;3168;51.684;6.954;2022-12-16T07:00:56;-6.80;1.00
6270;DHT22;3168;51.684;6.954;2022-12-16T07:03:29;-6.70;1.00
6270;DHT22;3168;51.684;6.954;2022-12-16T07:06:00;-6.70;1.00
6270;DHT22;3168;51.684;6.954;2022-12-16T07:08:32;-6.60;1.00
6270;DHT22;3168;51.684;6.954;2022-12-16T07:11:04;-6.50;1.00
6270;DHT22;3168;51.684;6.954;2022-12-16T07:13:36;-6.40;1.00
6270;DHT22;3168;51.684;6.954;2022-12-16T07:16:08;-6.20;1.00
6270;DHT22;3168;51.684;6.954;2022-12-16T07:18:40;-6.10;1.00
6270;DHT22;3168;51.684;6.954;2022-12-16T07:21:12;-6.10;1.00
6270;DHT22;3168;51.684;6.954;2022-12-16T07:23:44;-6.20;1.00
6270;DHT22;3168;51.684;6.954;2022-12-16T07:26:15;-6.20;1.00
6270;DHT22;3168;51.684;6.954;2022-12-16T07:28:47;-6.10;1.00
6270;DHT22;3168;51.684;6.954;2022-12-16T07:31:19;-6.10;1.00
6270;DHT22;3168;51.684;6.954;2022-12-16T07:33:51;-6.00;1.00
6270;DHT22;3168;51.684;6.954;2022-12-16T07:36:23;-6.00;1.00
6270;DHT22;3168;51.684;6.954;2022-12-16T07:38:55;-5.90;1.00
6270;DHT22;3168;51.684;6.954;2022-12-16T07:41:27;-5.80;1.00
6270;DHT22;3168;51.684;6.954;2022-12-16T07:43:59;-5.70;1.00
6270;DHT22;3168;51.684;6.954;2022-12-16T07:46:31;-5.80;1.00
6270;DHT22;3168;51.684;6.954;2022-12-16T07:49:03;-5.80;1.00
6270;DHT22;3168;51.684;6.954;2022-12-16T07:51:35;-5.80;1.00
6270;DHT22;3168;51.684;6.954;2022-12-16T07:54:07;-5.70;1.00
6270;DHT22;3168;51.684;6.954;2022-12-16T07:56:39;-5.70;1.00
6270;DHT22;3168;51.684;6.954;2022-12-16T07:59:10;-5.70;1.00
6270;DHT22;3168;51.684;6.954;2022-12-16T08:01:42;-5.70;1.00
6270;DHT22;3168;51.684;6.954;2022-12-16T08:04:14;-5.50;1.00
6270;DHT22;3168;51.684;6.954;2022-12-16T08:06:46;-5.40;1.00
6270;DHT22;3168;51.684;6.954;2022-12-16T08:09:18;-5.30;1.00
6270;DHT22;3168;51.684;6.954;2022-12-16T08:11:50;-5.30;1.00
6270;DHT22;3168;51.684;6.954;2022-12-16T08:14:22;-5.30;1.00
6270;DHT22;3168;51.684;6.954;2022-12-16T08:16:53;-5.30;1.00
6270;DHT22;3168;51.684;6.954;2022-12-16T08:19:25;-5.20;1.00
6270;DHT22;3168;51.684;6.954;2022-12-16T08:21:57;-5.10;1.00
6270;DHT22;3168;51.684;6.954;2022-12-16T08:24:29;-5.10;1.00
6270;DHT22;3168;51.684;6.954;2022-12-16T08:27:02;-4.90;1.00
6270;DHT22;3168;51.684;6.954;2022-12-16T08:29:33;-4.90;1.00
6270;DHT22;3168;51.684;6.954;2022-12-16T08:32:05;-4.90;1.00
6270;DHT22;3168;51.684;6.954;2022-12-16T08:34:37;-4.80;1.00
6270;DHT22;3168;51.684;6.954;2022-12-16T08:37:09;-4.80;1.00
6270;DHT22;3168;51.684;6.954;2022-12-16T08:39:41;-4.70;1.00
6270;DHT22;3168;51.684;6.954;2022-12-16T08:42:13;-4.70;1.00
6270;DHT22;3168;51.684;6.954;2022-12-16T08:44:45;-4.70;1.00
6270;DHT22;3168;51.684;6.954;2022-12-16T08:47:17;-4.70;1.00
6270;DHT22;3168;51.684;6.954;2022-12-16T08:49:49;-4.70;1.00
6270;DHT22;3168;51.684;6.954;2022-12-16T08:52:21;-4.60;1.00
6270;DHT22;3168;51.684;6.954;2022-12-16T08:54:53;-4.60;1.00
6270;DHT22;3168;51.684;6.954;2022-12-16T08:57:25;-4.50;1.00
6270;DHT22;3168;51.684;6.954;2022-12-16T09:00:10;-4.40;1.00
6270;DHT22;3168;51.684;6.954;2022-12-16T09:02:42;-4.40;1.00
6270;DHT22;3168;51.684;6.954;2022-12-16T09:05:15;-4.20;1.00
6270;DHT22;3168;51.684;6.954;2022-12-16T09:07:47;-4.20;1.00
6270;DHT22;3168;51.684;6.954;2022-12-16T09:10:19;-4.00;1.00
6270;DHT22;3168;51.684;6.954;2022-12-16T09:12:51;-4.10;1.00
6270;DHT22;3168;51.684;6.954;2022-12-16T09:15:23;-4.10;1.00
6270;DHT22;3168;51.684;6.954;2022-12-16T09:17:55;-4.20;1.00
6270;DHT22;3168;51.684;6.954;2022-12-16T09:20:27;-4.10;1.00
6270;DHT22;3168;51.684;6.954;2022-12-16T09:23:01;-4.00;1.00
6270;DHT22;3168;51.684;6.954;2022-12-16T09:25:32;-3.90;1.00
6270;DHT22;3168;51.684;6.954;2022-12-16T09:28:04;-3.80;1.00
6270;DHT22;3168;51.684;6.954;2022-12-16T09:30:36;-3.70;1.00
6270;DHT22;3168;51.684;6.954;2022-12-16T09:33:08;-3.70;1.00
6270;DHT22;3168;51.684;6.954;2022-12-16T09:35:40;-3.70;1.00
6270;DHT22;3168;51.684;6.954;2022-12-16T09:38:12;-3.70;1.00
6270;DHT22;3168;51.684;6.954;2022-12-16T09:40:44;-3.50;1.00
6270;DHT22;3168;51.684;6.954;2022-12-16T09:46:19;-3.40;1.00
6270;DHT22;3168;51.684;6.954;2022-12-16T09:48:59;-3.20;1.00
6270;DHT22;3168;51.684;6.954;2022-12-16T09:51:29;-3.20;1.00
6270;DHT22;3168;51.684;6.954;2022-12-16T09:54:01;-3.20;1.00
6270;DHT22;3168;51.684;6.954;2022-12-16T09:56:33;-3.20;1.00
6270;DHT22;3168;51.684;6.954;2022-12-16T09:59:05;-3.10;1.00
6270;DHT22;3168;51.684;6.954;2022-12-16T10:01:36;-3.10;1.00
6270;DHT22;3168;51.684;6.954;2022-12-16T10:04:08;-3.10;1.00
6270;DHT22;3168;51.684;6.954;2022-12-16T10:06:44;-3.10;3.20
6270;DHT22;3168;51.684;6.954;2022-12-16T10:09:21;-2.90;3.00
6270;DHT22;3168;51.684;6.954;2022-12-16T10:11:57;-2.90;3.60
6270;DHT22;3168;51.684;6.954;2022-12-16T10:14:30;-2.90;5.60
6270;DHT22;3168;51.684;6.954;2022-12-16T10:17:12;-2.90;5.70
6270;DHT22;3168;51.684;6.954;2022-12-16T10:19:57;-2.90;7.20
6270;DHT22;3168;51.684;6.954;2022-12-16T10:23:01;-3.00;9.10
6270;DHT22;3168;51.684;6.954;2022-12-16T10:25:21;-2.90;14.30
6270;DHT22;3168;51.684;6.954;2022-12-16T10:27:53;-3.00;13.50
6270;DHT22;3168;51.684;6.954;2022-12-16T10:30:24;-2.80;17.50
6270;DHT22;3168;51.684;6.954;2022-12-16T10:32:55;-2.80;17.80
6270;DHT22;3168;51.684;6.954;2022-12-16T10:35:33;-2.70;17.50
6270;DHT22;3168;51.684;6.954;2022-12-16T10:38:05;-2.60;18.10
6270;DHT22;3168;51.684;6.954;2022-12-16T10:40:35;-2.60;18.30
6270;DHT22;3168;51.684;6.954;2022-12-16T10:43:11;-2.60;17.60
6270;DHT22;3168;51.684;6.954;2022-12-16T10:45:43;-2.50;16.40
6270;DHT22;3168;51.684;6.954;2022-12-16T10:48:15;-2.50;15.20
6270;DHT22;3168;51.684;6.954;2022-12-16T10:50:46;-2.50;13.70
6270;DHT22;3168;51.684;6.954;2022-12-16T10:53:20;-2.50;12.30
6270;DHT22;3168;51.684;6.954;2022-12-16T10:56:48;-2.50;12.00
6270;DHT22;3168;51.684;6.954;2022-12-16T10:58:59;-2.50;13.20
6270;DHT22;3168;51.684;6.954;2022-12-16T11:01:30;-2.50;12.30
6270;DHT22;3168;51.684;6.954;2022-12-16T11:04:03;-2.50;11.60
6270;DHT22;3168;51.684;6.954;2022-12-16T11:06:35;-2.40;12.50
6270;DHT22;3168;51.684;6.954;2022-12-16T11:11:50;-2.50;15.20
6270;DHT22;3168;51.684;6.954;2022-12-16T11:14:24;-2.30;14.20
6270;DHT22;3168;51.684;6.954;2022-12-16T11:19:39;-2.30;15.30
6270;DHT22;3168;51.684;6.954;2022-12-16T11:22:13;-2.20;16.60
6270;DHT22;3168;51.684;6.954;2022-12-16T11:24:44;-2.00;16.60
6270;DHT22;3168;51.684;6.954;2022-12-16T11:27:21;-1.90;14.90
6270;DHT22;3168;51.684;6.954;2022-12-16T11:29:52;-1.80;13.60
6270;DHT22;3168;51.684;6.954;2022-12-16T11:32:24;-1.90;10.00
6270;DHT22;3168;51.684;6.954;2022-12-16T11:34:56;-1.90;9.00
6270;DHT22;3168;51.684;6.954;2022-12-16T11:37:27;-1.80;9.10
6270;DHT22;3168;51.684;6.954;2022-12-16T11:39:59;-1.90;9.20
6270;DHT22;3168;51.684;6.954;2022-12-16T11:42:39;-1.80;9.40
6270;DHT22;3168;51.684;6.954;2022-12-16T11:45:13;-1.70;9.30
6270;DHT22;3168;51.684;6.954;2022-12-16T11:47:45;-1.60;8.30
6270;DHT22;3168;51.684;6.954;2022-12-16T11:50:16;-1.90;7.50
6270;DHT22;3168;51.684;6.954;2022-12-16T11:52:50;-1.80;11.60
6270;DHT22;3168;51.684;6.954;2022-12-16T11:55:23;-1.60;14.40
6270;DHT22;3168;51.684;6.954;2022-12-16T11:57:59;-1.50;14.40
6270;DHT22;3168;51.684;6.954;2022-12-16T12:00:27;-1.50;10.80
6270;DHT22;3168;51.684;6.954;2022-12-16T12:03:09;-1.40;10.80
6270;DHT22;3168;51.684;6.954;2022-12-16T12:05:45;-1.40;10.70
6270;DHT22;3168;51.684;6.954;2022-12-16T12:08:24;-1.30;11.00
6270;DHT22;3168;51.684;6.954;2022-12-16T12:10:57;-1.30;11.10
6270;DHT22;3168;51.684;6.954;2022-12-16T12:14:03;-1.20;10.00
6270;DHT22;3168;51.684;6.954;2022-12-16T12:16:55;-1.20;7.00
6270;DHT22;3168;51.684;6.954;2022-12-16T12:19:35;-1.20;4.90
6270;DHT22;3168;51.684;6.954;2022-12-16T12:22:06;-1.20;3.70
6270;DHT22;3168;51.684;6.954;2022-12-16T12:27:36;-1.30;1.70
6270;DHT22;3168;51.684;6.954;2022-12-16T12:30:11;-1.10;3.20
6270;DHT22;3168;51.684;6.954;2022-12-16T12:38:30;-1.10;1.30
6270;DHT22;3168;51.684;6.954;2022-12-16T12:41:17;-0.90;2.20
6270;DHT22;3168;51.684;6.954;2022-12-16T12:44:04;-0.80;1.70
6270;DHT22;3168;51.684;6.954;2022-12-16T12:46:38;-0.70;1.00
6270;DHT22;3168;51.684;6.954;2022-12-16T12:49:14;-0.80;1.00
6270;DHT22;3168;51.684;6.954;2022-12-16T12:51:51;-0.80;1.00
6270;DHT22;3168;51.684;6.954;2022-12-16T12:54:45;-0.70;1.00
6270;DHT22;3168;51.684;6.954;2022-12-16T12:57:16;-0.60;1.00
6270;DHT22;3168;51.684;6.954;2022-12-16T12:59:52;-0.50;1.00
6270;DHT22;3168;51.684;6.954;2022-12-16T13:02:23;-0.60;1.00
6270;DHT22;3168;51.684;6.954;2022-12-16T13:04:54;-0.60;1.00
6270;DHT22;3168;51.684;6.954;2022-12-16T13:07:26;-0.60;1.00
6270;DHT22;3168;51.684;6.954;2022-12-16T13:10:10;-0.50;1.00
6270;DHT22;3168;51.684;6.954;2022-12-16T13:12:41;-0.50;1.00
6270;DHT22;3168;51.684;6.954;2022-12-16T13:15:32;-0.50;1.00
6270;DHT22;3168;51.684;6.954;2022-12-16T13:18:12;-0.40;1.00
6270;DHT22;3168;51.684;6.954;2022-12-16T13:20:43;-0.40;1.00
6270;DHT22;3168;51.684;6.954;2022-12-16T13:23:37;-0.30;1.00
6270;DHT22;3168;51.684;6.954;2022-12-16T13:26:08;-0.40;1.00
6270;DHT22;3168;51.684;6.954;2022-12-16T13:28:40;-0.40;1.00
6270;DHT22;3168;51.684;6.954;2022-12-16T13:31:12;-0.40;1.00
6270;DHT22;3168;51.684;6.954;2022-12-16T13:33:48;-0.20;1.00
6270;DHT22;3168;51.684;6.954;2022-12-16T13:36:16;-0.20;1.00
6270;DHT22;3168;51.684;6.954;2022-12-16T13:38:49;-0.30;1.00
6270;DHT22;3168;51.684;6.954;2022-12-16T13:41:46;-0.40;1.00
6270;DHT22;3168;51.684;6.954;2022-12-16T13:47:28;-0.50;3.40
6270;DHT22;3168;51.684;6.954;2022-12-16T13:49:40;-0.60;7.10
6270;DHT22;3168;51.684;6.954;2022-12-16T13:52:13;-0.60;11.90
6270;DHT22;3168;51.684;6.954;2022-12-16T13:54:48;-0.50;12.80
6270;DHT22;3168;51.684;6.954;2022-12-16T13:57:19;-0.70;9.70
6270;DHT22;3168;51.684;6.954;2022-12-16T13:59:50;-0.80;13.10
6270;DHT22;3168;51.684;6.954;2022-12-16T14:02:32;-0.90;15.60
6270;DHT22;3168;51.684;6.954;2022-12-16T14:05:18;-0.90;18.40
6270;DHT22;3168;51.684;6.954;2022-12-16T14:07:49;-1.00;20.90
6270;DHT22;3168;51.684;6.954;2022-12-16T14:10:34;-1.00;25.00
6270;DHT22;3168;51.684;6.954;2022-12-16T14:13:06;-0.90;27.20
6270;DHT22;3168;51.684;6.954;2022-12-16T14:18:40;-0.90;29.90
6270;DHT22;3168;51.684;6.954;2022-12-16T14:21:10;-0.90;29.90
6270;DHT22;3168;51.684;6.954;2022-12-16T14:23:44;-0.90;32.30
6270;DHT22;3168;51.684;6.954;2022-12-16T14:26:15;-1.00;31.20
6270;DHT22;3168;51.684;6.954;2022-12-16T14:28:46;-1.00;34.40
6270;DHT22;3168;51.684;6.954;2022-12-16T14:31:24;-1.00;37.50
6270;DHT22;3168;51.684;6.954;2022-12-16T14:33:55;-1.00;38.90
6270;DHT22;3168;51.684;6.954;2022-12-16T14:36:27;-1.00;38.50
6270;DHT22;3168;51.684;6.954;2022-12-16T14:38:59;-1.00;38.80
6270;DHT22;3168;51.684;6.954;2022-12-16T14:41:31;-1.00;39.40
6270;DHT22;3168;51.684;6.954;2022-12-16T14:44:04;-1.00;37.70
6270;DHT22;3168;51.684;6.954;2022-12-16T14:46:35;-1.10;37.40
6270;DHT22;3168;51.684;6.954;2022-12-16T14:49:13;-1.00;39.40
6270;DHT22;3168;51.684;6.954;2022-12-16T14:51:45;-1.00;39.90
6270;DHT22;3168;51.684;6.954;2022-12-16T14:54:38;-1.00;40.70
6270;DHT22;3168;51.684;6.954;2022-12-16T14:57:10;-1.00;43.60
6270;DHT22;3168;51.684;6.954;2022-12-16T14:59:41;-1.00;43.60
6270;DHT22;3168;51.684;6.954;2022-12-16T15:02:18;-0.90;43.60
6270;DHT22;3168;51.684;6.954;2022-12-16T15:04:45;-0.90;39.20
6270;DHT22;3168;51.684;6.954;2022-12-16T15:07:17;-1.00;40.50
6270;DHT22;3168;51.684;6.954;2022-12-16T15:09:50;-1.00;48.20
6270;DHT22;3168;51.684;6.954;2022-12-16T15:12:23;-1.00;48.20
6270;DHT22;3168;51.684;6.954;2022-12-16T15:14:53;-1.00;52.30
6270;DHT22;3168;51.684;6.954;2022-12-16T15:17:27;-1.00;52.50
6270;DHT22;3168;51.684;6.954;2022-12-16T15:19:58;-1.20;56.60
6270;DHT22;3168;51.684;6.954;2022-12-16T15:22:30;-1.20;60.00
6270;DHT22;3168;51.684;6.954;2022-12-16T15:25:01;-1.30;65.20
6270;DHT22;3168;51.684;6.954;2022-12-16T15:27:34;-1.20;73.30
6270;DHT22;3168;51.684;6.954;2022-12-16T15:32:51;-1.30;75.10
6270;DHT22;3168;51.684;6.954;2022-12-16T15:35:33;-1.20;79.30
6270;DHT22;3168;51.684;6.954;2022-12-16T15:38:19;-1.20;81.90
6270;DHT22;3168;51.684;6.954;2022-12-16T15:40:49;-1.10;84.50
6270;DHT22;3168;51.684;6.954;2022-12-16T15:43:28;-1.10;85.20
6270;DHT22;3168;51.684;6.954;2022-12-16T15:45:59;-1.20;84.00
6270;DHT22;3168;51.684;6.954;2022-12-16T15:48:32;-1.20;87.00
6270;DHT22;3168;51.684;6.954;2022-12-16T15:51:17;-1.20;86.90
6270;DHT22;3168;51.684;6.954;2022-12-16T15:53:45;-1.20;88.40
6270;DHT22;3168;51.684;6.954;2022-12-16T15:56:19;-1.20;89.60
6270;DHT22;3168;51.684;6.954;2022-12-16T15:58:50;-1.20;91.10
6270;DHT22;3168;51.684;6.954;2022-12-16T16:01:23;-1.30;91.30
6270;DHT22;3168;51.684;6.954;2022-12-16T16:03:54;-1.40;91.30
6270;DHT22;3168;51.684;6.954;2022-12-16T16:06:25;-1.40;93.00
6270;DHT22;3168;51.684;6.954;2022-12-16T16:08:59;-1.30;94.20
6270;DHT22;3168;51.684;6.954;2022-12-16T16:11:32;-1.40;94.70
6270;DHT22;3168;51.684;6.954;2022-12-16T16:14:04;-1.40;94.60
6270;DHT22;3168;51.684;6.954;2022-12-16T16:16:36;-1.40;95.20
6270;DHT22;3168;51.684;6.954;2022-12-16T16:19:11;-1.50;97.00
6270;DHT22;3168;51.684;6.954;2022-12-16T16:21:42;-1.50;96.80
6270;DHT22;3168;51.684;6.954;2022-12-16T16:24:14;-1.50;97.70
6270;DHT22;3168;51.684;6.954;2022-12-16T16:26:46;-1.50;99.00
6270;DHT22;3168;51.684;6.954;2022-12-16T16:29:18;-1.40;99.40
6270;DHT22;3168;51.684;6.954;2022-12-16T16:31:50;-1.40;99.90
6270;DHT22;3168;51.684;6.954;2022-12-16T16:34:21;-1.40;99.90
6270;DHT22;3168;51.684;6.954;2022-12-16T16:36:54;-1.50;99.90
6270;DHT22;3168;51.684;6.954;2022-12-16T16:39:25;-1.50;99.90
6270;DHT22;3168;51.684;6.954;2022-12-16T16:41:57;-1.50;99.90
6270;DHT22;3168;51.684;6.954;2022-12-16T16:44:29;-1.50;99.90
6270;DHT22;3168;51.684;6.954;2022-12-16T16:47:01;-1.60;99.90
6270;DHT22;3168;51.684;6.954;2022-12-16T16:49:34;-1.60;99.90
6270;DHT22;3168;51.684;6.954;2022-12-16T16:52:08;-1.60;99.90
6270;DHT22;3168;51.684;6.954;2022-12-16T16:54:37;-1.70;99.90
6270;DHT22;3168;51.684;6.954;2022-12-16T16:57:09;-1.80;99.90
6270;DHT22;3168;51.684;6.954;2022-12-16T16:59:40;-1.80;99.90
6270;DHT22;3168;51.684;6.954;2022-12-16T17:02:17;-1.80;99.90
6270;DHT22;3168;51.684;6.954;2022-12-16T17:04:47;-1.70;99.90
6270;DHT22;3168;51.684;6.954;2022-12-16T17:07:19;-1.90;99.90
6270;DHT22;3168;51.684;6.954;2022-12-16T17:09:51;-2.00;99.90
6270;DHT22;3168;51.684;6.954;2022-12-16T17:12:26;-2.00;99.90
6270;DHT22;3168;51.684;6.954;2022-12-16T17:14:57;-2.00;99.90
6270;DHT22;3168;51.684;6.954;2022-12-16T17:17:29;-2.10;99.90
6270;DHT22;3168;51.684;6.954;2022-12-16T17:20:01;-2.00;99.90
6270;DHT22;3168;51.684;6.954;2022-12-16T17:22:33;-2.00;99.90
6270;DHT22;3168;51.684;6.954;2022-12-16T17:25:06;-2.00;99.90
6270;DHT22;3168;51.684;6.954;2022-12-16T17:27:38;-2.00;99.90